Weather observations for the past three days for
Lewiston, Lewiston-Nez Perce County Airport
Imperial (Metric)
Date Time (pdt) Wind (mph) Vis. (mi.) Weather Sky Cond. Temperature (ºF) Relative Humidity Wind Chill (°F) Heat Index (°F) Pressure Precipitation (in)
Air Dwpt 6 hour altimeter (in) sea level (mb) 1 hr 3 hr 6 hr
Max. Min.
10 08:56 Calm 10.00 Fair CLR 60.1 45 58% 29.99 1015.1
10 07:56 N 3 10.00 Fair CLR 57 44.1 62% 30 1015.5
10 06:56 E 6 10.00 Fair CLR 55.9 41 57% 29.99 1015.1
10 05:56 Calm 10.00 Fair CLR 51.1 41 69% 29.99 1015.2
10 04:56 E 10 10.00 Fair CLR 54 41 60.1 51.1 62% 29.99 1015.3
10 03:56 SE 6 10.00 Fair CLR 53.1 41 64% 30.01 1015.7
10 02:56 SE 7 10.00 Fair CLR 54 42.1 64% 30.01 1015.9
10 01:56 SE 3 10.00 Fair CLR 53.1 41 64% 30.02 1016.3
10 00:56 S 6 10.00 Fair CLR 54 41 62% 30.03 1016.5
09 23:56 E 3 10.00 Fair CLR 57 41 55% 30.03 1016.4
09 22:56 S 3 10.00 Fair CLR 60.1 41 75 59 50% 30.04 1016.8
09 21:56 S 5 10.00 Fair CLR 61 42.1 50% 30.04 1017.0
09 20:56 S 5 10.00 Fair CLR 63 44.1 50% 30.04 1016.9
09 19:56 SE 6 10.00 Fair CLR 69.1 44.1 41% 30.03 1016.5
09 18:56 Calm 10.00 Fair CLR 73 41 32% 30.03 1016.7
09 17:56 Calm 10.00 Fair CLR 73.9 37.9 27% 30.04 1017.0
09 16:56 N 5 10.00 Fair CLR 75 37 75 66 25% 77 30.05 1017.3
09 15:56 Calm 10.00 Fair CLR 73 34 24% 30.06 1017.6
09 14:56 Vrbl 5 10.00 Fair CLR 73 35.1 25% 30.08 1018.1
09 13:56 Vrbl 5 10.00 Fair CLR 72 34 25% 30.1 1018.9
09 12:56 Calm 10.00 Fair CLR 71.1 36 28% 30.12 1019.5
09 11:56 Calm 10.00 Fair CLR 68 37 32% 30.14 1020.3
09 10:56 NW 6 10.00 Fair CLR 66 36 66 48 33% 30.15 1020.6
09 09:56 Calm 10.00 Fair CLR 63 39.9 43% 30.15 1020.6
09 08:56 NE 7 10.00 Fair CLR 60.1 39.9 48% 30.15 1020.8
09 07:56 N 3 10.00 Fair CLR 55 41 59% 30.15 1020.8
09 06:56 Calm 10.00 Fair CLR 52 37 57% 30.15 1020.6
09 05:56 Calm 10.00 Fair CLR 51.1 35.1 54% 30.13 1019.8
09 04:56 SE 3 10.00 Fair CLR 48.9 34 61 48.9 56% 30.11 1019.2
09 03:56 S 6 10.00 Fair CLR 51.1 33.1 50% 30.1 1018.9
09 02:56 SW 3 10.00 Fair CLR 57 30.9 37% 30.09 1018.4
09 01:56 SE 5 10.00 Fair CLR 55 32 42% 30.07 1017.9
09 00:56 NW 3 10.00 Fair CLR 57.9 30.9 36% 30.06 1017.4
08 23:56 W 8 10.00 Fair CLR 60.1 32 35% 30.04 1016.9
08 22:56 N 5 10.00 Fair CLR 60.1 32 75.9 60.1 35% 30.02 1016.3
08 21:56 SW 5 10.00 Fair CLR 64 28 26% 30 1015.6
08 20:56 Vrbl 3 10.00 Fair CLR 64.9 27 24% 29.98 1014.9
08 19:56 W 10 10.00 Mostly Cloudy BKN120 69.1 25 19% 29.96 1014.0
08 18:56 NW 14 G 22 10.00 Fair CLR 72 19 13% 29.94 1013.4
08 17:56 NW 10 10.00 Fair CLR 73 21 14% 29.94 1013.4
08 16:56 W 13 G 23 10.00 Fair CLR 75 28.9 75.9 63 18% 76 29.94 1013.6
08 15:56 NW 5 10.00 Fair CLR 73 32 22% 29.96 1014.1
08 14:56 Calm 10.00 Fair CLR 73 36 26% 29.96 1014.1
08 13:56 E 6 10.00 Fair CLR 73 36 26% 29.96 1014.1
08 12:56 Calm 10.00 Fair CLR 69.1 39.9 35% 29.97 1014.5
08 11:56 Calm 10.00 Fair CLR 66 39.9 39% 29.98 1014.8
08 10:56 SW 5 10.00 Fair CLR 63 44.1 64 48 50% 29.99 1015.2
08 09:56 NE 3 10.00 Fair CLR 61 45 56% 29.98 1015.0
08 08:56 NW 6 10.00 Fair CLR 57.9 46 65% 29.99 1015.1
08 07:56 N 5 10.00 Fair CLR 55.9 45 67% 29.98 1015.0
08 06:56 Calm 10.00 Fair CLR 52 39.9 64% 29.98 1014.9
08 05:56 S 3 10.00 Fair CLR 48 41 77% 29.97 1014.4
08 04:56 S 3 10.00 Fair CLR 51.1 39.9 60.1 48 66% 29.96 1013.9
08 03:56 Calm 10.00 Fair CLR 53.1 41 64% 29.95 1013.7
08 02:56 Calm 10.00 Fair CLR 53.1 39.9 61% 29.94 1013.4
08 01:56 SE 3 10.00 Fair CLR 54 39.9 59% 29.94 1013.4
08 00:56 SW 3 10.00 Fair CLR 55 41 59% 29.94 1013.4
07 23:56 S 3 10.00 Fair CLR 57 41 55% 29.93 1013.2
07 22:56 S 7 10.00 Fair CLR 59 39.9 75.9 59 49% 29.93 1013.1
07 21:56 SE 5 10.00 Fair CLR 62.1 41 46% 29.92 1012.8
07 20:56 W 3 10.00 Fair CLR 66.9 36 32% 29.92 1012.7
07 19:56 NW 6 10.00 Fair CLR 68 39.9 36% 0 0.0
07 18:56 NW 6 10.00 Fair CLR 73 41 32% 0 0.0
07 17:56 NW 9 10.00 Fair CLR 75 39.9 28% 77 0 0.0
07 16:56 NW 8 10.00 Fair CLR 75.9 39.9 77 70 27% 77 0 0.0
07 15:56 Vrbl 6 G 16 10.00 Fair CLR 75 39 27% 77 29.94 1013.4
07 14:56 W 10 10.00 Fair CLR 75.9 42.1 30% 77 0 0.0
07 13:56 W 9 10.00 Fair CLR 73.9 39 28% 29.97 1013.9
07 12:56 NW 7 10.00 Fair CLR 73 41 32% 29.96 1013.6
07 11:56 Vrbl 7 10.00 Fair CLR 73 43 34% 29.96 1013.8
07 10:56 Vrbl 6 10.00 Fair CLR 71.1 44.1 71.1 54 38% 29.97 1014.1
07 09:56 Vrbl 5 10.00 Fair CLR 68 44.1 42% 29.98 1014.3
Date Time (pdt) Wind (mph) Vis. (mi.) Weather Sky Cond. Air Dwpt Max. Min. Relative Humidity Wind Chill (°F) Heat Index (°F) altimeter (in) sea level (mb) 1 hr 3 hr 6 hr
6 hour
Temperature (ºF) Pressure Precipitation (in)